createdAt,value
2023-04-27T00:02:21.874Z,9.03
2023-04-27T00:05:24.819Z,10.07
2023-04-27T00:08:27.594Z,10.45
2023-04-27T00:11:30.240Z,9.60
2023-04-27T00:14:32.936Z,13.10
2023-04-27T00:17:36.062Z,11.57
2023-04-27T00:20:38.942Z,10.27
2023-04-27T00:23:41.791Z,11.23
2023-04-27T00:26:44.354Z,10.48
2023-04-27T00:29:48.430Z,10.67
2023-04-27T00:32:51.249Z,11.93
2023-04-27T00:35:53.954Z,9.63
2023-04-27T00:38:59.685Z,9.15
2023-04-27T00:42:02.353Z,12.05
2023-04-27T00:45:06.210Z,10.00
2023-04-27T00:48:10.425Z,8.53
2023-04-27T00:51:13.368Z,10.10
2023-04-27T00:54:18.178Z,11.35
2023-04-27T00:57:23.927Z,11.25
2023-04-27T01:00:26.624Z,8.97
2023-04-27T01:03:30.867Z,11.80
2023-04-27T01:06:33.819Z,10.85
2023-04-27T01:09:36.809Z,10.63
2023-04-27T01:12:39.456Z,10.70
2023-04-27T01:15:42.206Z,10.27
2023-04-27T01:18:47.879Z,10.17
2023-04-27T01:21:50.655Z,11.02
2023-04-27T01:24:53.877Z,10.35
2023-04-27T01:27:56.605Z,9.63
2023-04-27T01:31:02.383Z,12.30
2023-04-27T01:34:04.982Z,11.53
2023-04-27T01:37:07.653Z,9.90
2023-04-27T01:40:10.642Z,9.75
2023-04-27T01:43:13.452Z,9.55
2023-04-27T01:46:16.396Z,9.73
2023-04-27T01:49:22.276Z,12.97
2023-04-27T01:52:25.279Z,11.00
2023-04-27T01:55:28.433Z,11.23
2023-04-27T01:58:31.218Z,11.65
2023-04-27T02:01:34.693Z,10.60
2023-04-27T02:04:38.137Z,10.77
2023-04-27T02:07:41.101Z,12.85
2023-04-27T02:10:43.725Z,11.75
2023-04-27T02:13:46.808Z,9.55
2023-04-27T02:16:49.579Z,9.43
2023-04-27T02:19:52.429Z,10.07
2023-04-27T02:22:55.068Z,10.82
2023-04-27T02:25:57.745Z,9.98
2023-04-27T02:29:00.791Z,10.32
2023-04-27T02:32:03.924Z,10.90
2023-04-27T02:35:07.058Z,13.53
2023-04-27T02:38:10.552Z,10.65
2023-04-27T02:41:13.214Z,9.48
2023-04-27T02:44:16.188Z,9.98
2023-04-27T02:47:20.067Z,10.27
2023-04-27T02:50:22.688Z,8.83
2023-04-27T02:53:25.349Z,8.20
2023-04-27T02:56:28.072Z,10.75
2023-04-27T02:59:30.926Z,9.43
2023-04-27T03:02:33.881Z,10.97
2023-04-27T03:05:37.469Z,11.50
2023-04-27T03:08:51.039Z,10.65
2023-04-27T03:11:53.733Z,12.90
2023-04-27T03:14:56.644Z,10.95
2023-04-27T03:18:00.254Z,10.37
2023-04-27T03:21:11.113Z,12.40
2023-04-27T03:24:13.986Z,17.42
2023-04-27T03:27:19.562Z,19.58
2023-04-27T03:30:22.195Z,12.73
2023-04-27T03:33:27.192Z,12.23
2023-04-27T03:36:29.867Z,14.17
2023-04-27T03:39:32.510Z,12.20
2023-04-27T03:42:35.194Z,14.77
2023-04-27T03:45:38.189Z,12.20
2023-04-27T03:48:41.107Z,14.27
2023-04-27T03:51:44.199Z,42.53
2023-04-27T03:54:46.863Z,13.70
2023-04-27T03:57:49.661Z,12.35
2023-04-27T04:00:52.402Z,13.65
2023-04-27T04:03:55.244Z,13.23
2023-04-27T04:06:58.027Z,13.80
2023-04-27T04:10:00.938Z,14.50
2023-04-27T04:13:03.618Z,11.52
2023-04-27T04:16:08.072Z,11.55
2023-04-27T04:19:11.298Z,16.77
2023-04-27T04:22:14.216Z,11.63
2023-04-27T04:25:16.937Z,14.23
2023-04-27T04:28:19.564Z,11.98
2023-04-27T04:31:22.303Z,12.68
2023-04-27T04:34:25.088Z,12.00
2023-04-27T04:37:28.316Z,14.47
2023-04-27T04:40:31.252Z,18.23
2023-04-27T04:43:34.104Z,13.07
2023-04-27T04:46:37.558Z,15.57
2023-04-27T04:49:40.481Z,13.17
2023-04-27T04:52:43.342Z,11.97
2023-04-27T04:55:46.024Z,13.77
2023-04-27T04:58:51.718Z,12.30
2023-04-27T05:01:56.027Z,12.48
2023-04-27T05:05:00.224Z,14.10
2023-04-27T05:08:03.104Z,12.60
2023-04-27T05:11:05.906Z,18.48
2023-04-27T05:14:08.543Z,74.32
2023-04-27T05:17:11.244Z,55.67
2023-04-27T05:20:14.165Z,14.03
2023-04-27T05:23:17.292Z,17.60
2023-04-27T05:26:19.935Z,16.35
2023-04-27T05:29:23.032Z,15.82
2023-04-27T05:32:26.252Z,10.13
2023-04-27T05:35:32.099Z,10.30
2023-04-27T05:38:36.309Z,10.27
2023-04-27T05:41:40.597Z,9.57
2023-04-27T05:44:44.009Z,10.65
2023-04-27T05:47:46.877Z,12.35
2023-04-27T05:51:03.254Z,11.20
2023-04-27T05:54:05.948Z,10.23
2023-04-27T05:57:08.668Z,9.40
2023-04-27T06:00:12.895Z,10.20
2023-04-27T06:03:15.724Z,10.32
2023-04-27T06:06:18.648Z,9.97
2023-04-27T06:09:21.833Z,8.33
2023-04-27T06:12:25.268Z,9.27
2023-04-27T06:15:27.962Z,14.82
2023-04-27T06:18:31.836Z,8.27
2023-04-27T06:21:34.834Z,10.83
2023-04-27T06:24:38.928Z,11.77
2023-04-27T06:27:41.746Z,12.20
2023-04-27T06:30:44.502Z,12.40
2023-04-27T06:33:47.241Z,9.48
2023-04-27T06:36:49.906Z,11.10
2023-04-27T06:39:52.692Z,7.83
2023-04-27T06:42:55.436Z,10.38
2023-04-27T06:45:58.242Z,11.18
2023-04-27T06:49:01.788Z,8.02
2023-04-27T06:52:05.957Z,9.13
2023-04-27T06:55:09.016Z,10.67
2023-04-27T06:58:11.898Z,9.93
2023-04-27T07:01:14.621Z,9.45
2023-04-27T07:04:20.716Z,10.18
2023-04-27T07:07:23.719Z,9.38
2023-04-27T07:10:26.470Z,9.63
2023-04-27T07:13:30.284Z,9.88
2023-04-27T07:16:33.432Z,12.18
2023-04-27T07:19:37.322Z,9.13
2023-04-27T07:22:40.123Z,11.98
2023-04-27T07:25:43.677Z,11.43
2023-04-27T07:28:47.528Z,10.43
2023-04-27T07:31:52.184Z,8.48
2023-04-27T07:34:56.180Z,8.38
2023-04-27T07:38:02.999Z,9.48
2023-04-27T07:41:06.338Z,12.27
2023-04-27T07:44:12.556Z,11.38
2023-04-27T07:47:15.295Z,9.13
2023-04-27T07:50:22.366Z,11.70
2023-04-27T07:53:25.056Z,11.18
2023-04-27T07:56:28.309Z,9.70
2023-04-27T07:59:31.722Z,11.55
2023-04-27T08:02:34.973Z,8.88
2023-04-27T08:05:38.411Z,9.60
2023-04-27T08:08:41.645Z,8.25
2023-04-27T08:11:44.595Z,8.90
2023-04-27T08:14:50.093Z,8.27
2023-04-27T08:17:52.861Z,8.82
2023-04-27T08:20:55.996Z,6.62
2023-04-27T08:23:58.786Z,10.40
2023-04-27T08:27:07.076Z,8.50
2023-04-27T08:30:10.366Z,10.18
2023-04-27T08:33:13.545Z,9.10
2023-04-27T08:36:16.479Z,6.72
2023-04-27T08:39:20.103Z,9.05
2023-04-27T08:42:22.925Z,8.00
2023-04-27T08:45:26.304Z,8.65
2023-04-27T08:48:32.140Z,7.62
2023-04-27T08:51:35.606Z,8.30
2023-04-27T08:54:38.320Z,10.32
2023-04-27T08:57:53.949Z,7.80
2023-04-27T09:00:56.676Z,9.15
2023-04-27T09:04:02.080Z,8.52
2023-04-27T09:07:12.914Z,8.60
2023-04-27T09:10:16.505Z,6.95
2023-04-27T09:13:22.533Z,10.47
2023-04-27T09:16:28.451Z,7.85
2023-04-27T09:19:34.615Z,10.82
2023-04-27T09:22:48.694Z,7.03
2023-04-27T09:25:55.232Z,9.60
2023-04-27T09:28:58.008Z,9.27
2023-04-27T09:32:16.799Z,8.10
2023-04-27T09:35:30.059Z,10.45
2023-04-27T09:38:33.373Z,8.65
2023-04-27T09:41:36.773Z,8.73
2023-04-27T09:44:39.453Z,10.77
2023-04-27T09:47:42.418Z,9.98
2023-04-27T09:50:50.081Z,9.98
2023-04-27T09:53:54.744Z,10.20
2023-04-27T09:57:12.815Z,8.70
2023-04-27T10:00:46.561Z,9.10
2023-04-27T10:04:14.430Z,10.13
2023-04-27T10:07:20.223Z,8.05
2023-04-27T10:10:23.043Z,7.68
2023-04-27T10:13:31.913Z,9.40
2023-04-27T10:17:03.754Z,8.03
2023-04-27T10:20:07.745Z,7.30
2023-04-27T10:23:10.743Z,7.25
2023-04-27T10:26:13.381Z,7.95
2023-04-27T10:29:18.300Z,8.77
2023-04-27T10:32:26.462Z,9.63
2023-04-27T10:35:40.687Z,9.25
2023-04-27T10:38:43.499Z,9.07
2023-04-27T10:42:04.892Z,8.15
2023-04-27T10:45:08.413Z,8.45
2023-04-27T10:48:15.887Z,9.77
2023-04-27T10:51:18.704Z,8.85
2023-04-27T10:54:28.653Z,10.23
2023-04-27T10:57:34.642Z,9.65
2023-04-27T11:00:44.167Z,12.18
2023-04-27T11:03:59.109Z,12.83
2023-04-27T11:07:04.655Z,8.90
2023-04-27T11:10:08.680Z,9.68
2023-04-27T11:13:13.987Z,9.80
2023-04-27T11:16:17.134Z,9.48
2023-04-27T11:19:19.815Z,8.20
2023-04-27T11:22:22.436Z,7.68
2023-04-27T11:25:29.285Z,8.48
2023-04-27T11:28:32.312Z,9.45
2023-04-27T11:31:49.482Z,9.70
2023-04-27T11:34:54.398Z,7.57
2023-04-27T11:37:59.951Z,9.43
2023-04-27T11:41:06.841Z,11.02
2023-04-27T11:44:10.734Z,8.90
2023-04-27T11:47:19.330Z,9.75
2023-04-27T11:50:25.037Z,9.07
2023-04-27T11:53:32.930Z,8.88
2023-04-27T11:56:42.803Z,8.45
2023-04-27T11:59:45.759Z,9.05
2023-04-27T12:02:48.668Z,9.65
2023-04-27T12:05:54.590Z,8.03
2023-04-27T12:08:58.122Z,10.60
2023-04-27T12:12:01.022Z,9.93
2023-04-27T12:15:03.974Z,9.38
2023-04-27T12:18:07.143Z,8.98
2023-04-27T12:21:13.229Z,10.23
2023-04-27T12:24:16.461Z,8.15
2023-04-27T12:27:22.266Z,16.30
2023-04-27T12:30:25.042Z,11.45
2023-04-27T12:33:27.726Z,8.77
2023-04-27T12:36:30.397Z,9.50
2023-04-27T12:39:36.715Z,9.50
2023-04-27T12:42:42.873Z,10.60
2023-04-27T12:45:48.540Z,10.95
2023-04-27T12:48:54.174Z,11.32
2023-04-27T12:51:58.232Z,9.00
2023-04-27T12:55:02.304Z,10.98
2023-04-27T12:58:08.100Z,12.73
2023-04-27T13:01:15.242Z,10.65
2023-04-27T13:04:20.848Z,15.93
2023-04-27T13:07:24.203Z,10.13
2023-04-27T13:10:36.819Z,10.55
2023-04-27T13:13:42.473Z,8.85
2023-04-27T13:17:02.309Z,9.20
2023-04-27T13:20:07.495Z,11.12
2023-04-27T13:23:10.601Z,8.20
2023-04-27T13:26:13.807Z,9.55
2023-04-27T13:29:18.105Z,11.15
2023-04-27T13:32:21.191Z,10.15
2023-04-27T13:35:24.990Z,9.02
2023-04-27T13:38:27.830Z,10.40
2023-04-27T13:41:31.789Z,9.32
2023-04-27T13:44:34.592Z,12.93
2023-04-27T13:47:37.479Z,8.73
2023-04-27T13:50:40.130Z,12.05
2023-04-27T13:53:42.798Z,9.70
2023-04-27T13:56:45.860Z,12.00
2023-04-27T13:59:48.809Z,12.75
2023-04-27T14:02:51.667Z,10.73
2023-04-27T14:05:56.313Z,11.27
2023-04-27T14:08:58.997Z,12.60
2023-04-27T14:12:01.753Z,14.63
2023-04-27T14:15:05.296Z,10.18
2023-04-27T14:18:09.083Z,9.90
2023-04-27T14:21:11.906Z,8.73
2023-04-27T14:24:15.039Z,10.30
2023-04-27T14:27:18.015Z,8.27
2023-04-27T14:30:34.036Z,8.90
2023-04-27T14:33:36.802Z,9.70
2023-04-27T14:36:39.506Z,11.25
2023-04-27T14:39:45.009Z,10.20
2023-04-27T14:42:47.998Z,8.75
2023-04-27T14:45:55.511Z,9.05
2023-04-27T14:49:02.462Z,8.63
2023-04-27T14:52:06.773Z,11.18
2023-04-27T14:55:10.025Z,9.73
2023-04-27T14:58:12.783Z,12.85
2023-04-27T15:01:15.765Z,14.00
2023-04-27T15:04:18.933Z,9.88
2023-04-27T15:07:21.732Z,9.52
2023-04-27T15:10:24.584Z,8.33
2023-04-27T15:13:27.934Z,9.85
2023-04-27T15:16:30.813Z,10.60
2023-04-27T15:19:34.039Z,10.45
2023-04-27T15:22:37.226Z,9.85
2023-04-27T15:25:39.943Z,11.57
2023-04-27T15:28:42.840Z,8.68
2023-04-27T15:31:47.507Z,10.48
2023-04-27T15:34:50.293Z,7.55
2023-04-27T15:37:53.028Z,13.10
2023-04-27T15:40:55.891Z,8.13
2023-04-27T15:43:59.027Z,8.90
2023-04-27T15:47:02.280Z,9.90
2023-04-27T15:50:06.272Z,9.30
2023-04-27T15:53:09.100Z,8.57
2023-04-27T15:56:12.032Z,9.33
2023-04-27T15:59:14.994Z,8.82
2023-04-27T16:02:18.802Z,8.70
2023-04-27T16:05:21.718Z,9.82
2023-04-27T16:08:27.010Z,11.00
2023-04-27T16:11:32.744Z,9.30
2023-04-27T16:14:41.848Z,8.20
2023-04-27T16:17:44.742Z,8.50
2023-04-27T16:20:47.469Z,10.10
2023-04-27T16:23:50.290Z,9.35
2023-04-27T16:26:52.973Z,11.53
2023-04-27T16:29:56.578Z,11.55
2023-04-27T16:32:59.314Z,12.93
2023-04-27T16:36:02.005Z,9.80
2023-04-27T16:39:05.281Z,14.23
2023-04-27T16:42:08.341Z,11.43
2023-04-27T16:45:11.615Z,12.73
2023-04-27T16:48:14.346Z,12.18
2023-04-27T16:51:17.026Z,12.40
2023-04-27T16:54:21.154Z,13.55
2023-04-27T16:57:23.922Z,12.60
2023-04-27T17:00:27.661Z,11.70
2023-04-27T17:03:30.836Z,17.65
2023-04-27T17:06:34.968Z,11.60
2023-04-27T17:09:38.183Z,8.82
2023-04-27T17:12:41.062Z,16.03
2023-04-27T17:15:44.668Z,13.88
2023-04-27T17:18:48.167Z,11.43
2023-04-27T17:21:51.132Z,13.88
2023-04-27T17:24:54.475Z,11.40
2023-04-27T17:27:58.068Z,11.30
2023-04-27T17:31:02.282Z,15.13
2023-04-27T17:34:05.394Z,23.73
2023-04-27T17:37:08.680Z,15.57
2023-04-27T17:40:12.368Z,11.85
2023-04-27T17:43:15.361Z,41.00
2023-04-27T17:46:18.661Z,16.02
2023-04-27T17:49:22.750Z,13.27
2023-04-27T17:52:25.585Z,185.85
2023-04-27T17:55:33.974Z,50.12
2023-04-27T17:58:36.850Z,208.63
2023-04-27T18:01:40.031Z,99.75
2023-04-27T18:04:43.482Z,100.90
2023-04-27T18:07:46.795Z,71.78
2023-04-27T18:10:49.806Z,32.17
2023-04-27T18:13:54.639Z,20.00
2023-04-27T18:17:00.665Z,18.65
2023-04-27T18:20:09.352Z,18.20
2023-04-27T18:23:13.058Z,13.62
2023-04-27T18:26:17.207Z,13.55
2023-04-27T18:29:20.147Z,16.80
2023-04-27T18:32:23.386Z,15.93
2023-04-27T18:35:26.212Z,15.93
2023-04-27T18:38:29.491Z,14.02
2023-04-27T18:41:33.135Z,18.17
2023-04-27T18:44:36.718Z,15.83
2023-04-27T18:47:40.050Z,15.77
2023-04-27T18:50:42.999Z,19.23
2023-04-27T18:53:45.817Z,24.63
2023-04-27T18:56:53.047Z,22.62
2023-04-27T18:59:56.319Z,25.17
2023-04-27T19:02:59.482Z,41.22
2023-04-27T19:06:02.972Z,30.77
2023-04-27T19:09:05.761Z,32.03
2023-04-27T19:12:09.240Z,27.98
2023-04-27T19:15:14.670Z,32.77
2023-04-27T19:18:17.480Z,32.42
2023-04-27T19:21:20.327Z,31.87
2023-04-27T19:24:24.981Z,34.75
2023-04-27T19:27:28.260Z,36.83
2023-04-27T19:30:31.314Z,45.37
2023-04-27T19:33:34.169Z,43.10
2023-04-27T19:36:36.949Z,51.30
2023-04-27T19:39:39.864Z,39.83
2023-04-27T19:42:42.909Z,50.97
2023-04-27T19:45:45.956Z,49.90
2023-04-27T19:48:48.935Z,58.55
2023-04-27T19:51:51.689Z,50.83
2023-04-27T19:54:54.822Z,53.55
2023-04-27T19:57:57.759Z,69.60
2023-04-27T20:01:00.540Z,68.13
2023-04-27T20:04:03.461Z,65.70
2023-04-27T20:07:06.665Z,50.78
2023-04-27T20:10:09.395Z,45.88
2023-04-27T20:13:12.308Z,48.73
2023-04-27T20:16:15.360Z,48.43
2023-04-27T20:19:19.457Z,50.78
2023-04-27T20:22:22.931Z,45.15
2023-04-27T20:25:26.167Z,46.25
2023-04-27T20:28:30.491Z,42.40
2023-04-27T20:31:33.551Z,50.10
2023-04-27T20:34:36.334Z,36.70
2023-04-27T20:37:40.224Z,39.60
2023-04-27T20:40:42.970Z,36.42
2023-04-27T20:43:46.154Z,32.93
2023-04-27T20:46:49.201Z,36.33
2023-04-27T20:49:51.929Z,44.10
2023-04-27T20:52:54.604Z,43.67
2023-04-27T20:55:57.371Z,48.05
2023-04-27T20:59:00.210Z,58.90
2023-04-27T21:02:03.218Z,62.63
2023-04-27T21:05:06.332Z,51.22
2023-04-27T21:08:09.056Z,57.28
2023-04-27T21:11:12.250Z,56.92
2023-04-27T21:14:15.028Z,65.50
2023-04-27T21:17:18.042Z,87.00
2023-04-27T21:20:21.055Z,61.90
2023-04-27T21:23:23.839Z,82.10
2023-04-27T21:26:27.026Z,86.45
2023-04-27T21:29:34.932Z,86.23
2023-04-27T21:32:40.958Z,78.30
2023-04-27T21:35:43.769Z,91.57
2023-04-27T21:38:47.336Z,92.20
2023-04-27T21:41:51.508Z,85.05
2023-04-27T21:44:55.482Z,86.93
2023-04-27T21:48:01.301Z,91.83
2023-04-27T21:51:04.154Z,86.35
2023-04-27T21:54:07.244Z,89.22
2023-04-27T21:57:12.724Z,87.28
2023-04-27T22:00:18.345Z,94.43
2023-04-27T22:03:22.001Z,97.83
2023-04-27T22:06:25.783Z,93.00
2023-04-27T22:09:28.866Z,90.75
2023-04-27T22:12:31.652Z,95.85
2023-04-27T22:15:34.590Z,83.90
2023-04-27T22:18:37.429Z,79.93
2023-04-27T22:21:43.056Z,83.07
2023-04-27T22:24:46.094Z,77.93
2023-04-27T22:27:52.855Z,113.25
2023-04-27T22:30:56.015Z,104.67
2023-04-27T22:33:59.027Z,89.10
2023-04-27T22:37:02.570Z,89.62
2023-04-27T22:40:06.056Z,81.20
2023-04-27T22:43:08.685Z,66.00
2023-04-27T22:46:11.418Z,60.70
2023-04-27T22:49:15.358Z,60.93
2023-04-27T22:52:18.342Z,61.13
2023-04-27T22:55:21.381Z,59.70
2023-04-27T22:58:24.101Z,69.07
2023-04-27T23:01:26.781Z,63.00
2023-04-27T23:04:33.806Z,63.03
2023-04-27T23:07:37.352Z,68.90
2023-04-27T23:10:41.194Z,66.35
2023-04-27T23:13:44.712Z,59.45
2023-04-27T23:16:50.751Z,60.10
2023-04-27T23:19:53.401Z,63.13
2023-04-27T23:22:59.206Z,60.28
2023-04-27T23:26:02.617Z,62.88
2023-04-27T23:29:05.658Z,68.15
2023-04-27T23:32:08.850Z,62.73
2023-04-27T23:35:11.711Z,61.20
2023-04-27T23:38:14.509Z,66.25
2023-04-27T23:41:17.418Z,68.07
2023-04-27T23:44:20.360Z,65.37
2023-04-27T23:47:23.275Z,62.43
2023-04-27T23:50:26.167Z,65.70
2023-04-27T23:53:29.154Z,56.90
2023-04-27T23:56:32.051Z,48.33
2023-04-27T23:59:35.686Z,57.25
